sensor_id;sensor_type;location;lat;lon;timestamp;temperature;humidity
19908;DHT22;10116;53.112;7.356;2023-07-13T00:01:44;25.00;99.90
19908;DHT22;10116;53.112;7.356;2023-07-13T00:04:11;25.00;99.90
19908;DHT22;10116;53.112;7.356;2023-07-13T00:06:36;25.00;99.90
19908;DHT22;10116;53.112;7.356;2023-07-13T00:09:02;25.00;99.90
19908;DHT22;10116;53.112;7.356;2023-07-13T00:11:28;25.00;99.90
19908;DHT22;10116;53.112;7.356;2023-07-13T00:13:53;25.00;99.90
19908;DHT22;10116;53.112;7.356;2023-07-13T00:16:19;25.00;99.90
19908;DHT22;10116;53.112;7.356;2023-07-13T00:18:45;25.00;99.90
19908;DHT22;10116;53.112;7.356;2023-07-13T00:21:11;25.00;99.90
19908;DHT22;10116;53.112;7.356;2023-07-13T00:23:40;25.00;99.90
19908;DHT22;10116;53.112;7.356;2023-07-13T00:26:08;25.00;99.90
19908;DHT22;10116;53.112;7.356;2023-07-13T00:28:35;25.00;99.90
19908;DHT22;10116;53.112;7.356;2023-07-13T00:31:01;25.00;99.90
19908;DHT22;10116;53.112;7.356;2023-07-13T00:33:28;25.00;99.90
19908;DHT22;10116;53.112;7.356;2023-07-13T00:35:55;25.00;99.90
19908;DHT22;10116;53.112;7.356;2023-07-13T00:38:22;25.00;99.90
19908;DHT22;10116;53.112;7.356;2023-07-13T00:40:48;25.00;99.90
19908;DHT22;10116;53.112;7.356;2023-07-13T00:43:17;25.00;99.90
19908;DHT22;10116;53.112;7.356;2023-07-13T00:48:11;25.00;99.90
19908;DHT22;10116;53.112;7.356;2023-07-13T00:50:37;25.00;99.90
19908;DHT22;10116;53.112;7.356;2023-07-13T00:53:04;24.90;99.90
19908;DHT22;10116;53.112;7.356;2023-07-13T00:55:30;25.00;99.90
19908;DHT22;10116;53.112;7.356;2023-07-13T00:57:55;25.00;99.90
19908;DHT22;10116;53.112;7.356;2023-07-13T01:00:22;25.00;99.90
19908;DHT22;10116;53.112;7.356;2023-07-13T01:02:48;25.00;99.90
19908;DHT22;10116;53.112;7.356;2023-07-13T01:05:20;25.00;99.90
19908;DHT22;10116;53.112;7.356;2023-07-13T01:07:48;24.90;99.90
19908;DHT22;10116;53.112;7.356;2023-07-13T01:10:15;24.90;99.90
19908;DHT22;10116;53.112;7.356;2023-07-13T01:12:41;25.00;99.90
19908;DHT22;10116;53.112;7.356;2023-07-13T01:18:02;24.90;99.90
19908;DHT22;10116;53.112;7.356;2023-07-13T01:20:27;24.90;99.90
19908;DHT22;10116;53.112;7.356;2023-07-13T01:22:53;24.90;99.90
19908;DHT22;10116;53.112;7.356;2023-07-13T01:25:19;24.90;99.90
19908;DHT22;10116;53.112;7.356;2023-07-13T01:27:45;24.90;99.90
19908;DHT22;10116;53.112;7.356;2023-07-13T01:30:11;24.90;99.90
19908;DHT22;10116;53.112;7.356;2023-07-13T01:32:37;24.90;99.90
19908;DHT22;10116;53.112;7.356;2023-07-13T01:35:03;24.90;99.90
19908;DHT22;10116;53.112;7.356;2023-07-13T01:37:28;24.90;99.90
19908;DHT22;10116;53.112;7.356;2023-07-13T01:39:58;24.90;99.90
19908;DHT22;10116;53.112;7.356;2023-07-13T01:42:24;24.90;99.90
19908;DHT22;10116;53.112;7.356;2023-07-13T01:44:50;24.90;99.90
19908;DHT22;10116;53.112;7.356;2023-07-13T01:47:16;24.90;99.90
19908;DHT22;10116;53.112;7.356;2023-07-13T01:49:41;24.90;99.90
19908;DHT22;10116;53.112;7.356;2023-07-13T01:52:07;24.90;99.90
19908;DHT22;10116;53.112;7.356;2023-07-13T01:54:33;24.90;99.90
19908;DHT22;10116;53.112;7.356;2023-07-13T01:56:59;24.90;99.90
19908;DHT22;10116;53.112;7.356;2023-07-13T01:59:25;24.90;99.90
19908;DHT22;10116;53.112;7.356;2023-07-13T02:01:51;24.90;99.90
19908;DHT22;10116;53.112;7.356;2023-07-13T02:04:16;24.90;99.90
19908;DHT22;10116;53.112;7.356;2023-07-13T02:06:42;24.90;99.90
19908;DHT22;10116;53.112;7.356;2023-07-13T02:09:07;24.90;99.90
19908;DHT22;10116;53.112;7.356;2023-07-13T02:11:33;24.90;99.90
19908;DHT22;10116;53.112;7.356;2023-07-13T02:14:00;24.90;99.90
19908;DHT22;10116;53.112;7.356;2023-07-13T02:16:28;24.90;99.90
19908;DHT22;10116;53.112;7.356;2023-07-13T02:18:53;24.90;99.90
19908;DHT22;10116;53.112;7.356;2023-07-13T02:21:20;24.90;99.90
19908;DHT22;10116;53.112;7.356;2023-07-13T02:23:46;24.90;99.90
19908;DHT22;10116;53.112;7.356;2023-07-13T02:26:11;24.90;99.90
19908;DHT22;10116;53.112;7.356;2023-07-13T02:28:37;24.90;99.90
19908;DHT22;10116;53.112;7.356;2023-07-13T02:31:07;24.90;99.90
19908;DHT22;10116;53.112;7.356;2023-07-13T02:33:33;24.90;99.90
19908;DHT22;10116;53.112;7.356;2023-07-13T02:35:59;24.80;99.90
19908;DHT22;10116;53.112;7.356;2023-07-13T02:38:24;24.80;99.90
19908;DHT22;10116;53.112;7.356;2023-07-13T02:40:50;24.80;99.90
19908;DHT22;10116;53.112;7.356;2023-07-13T02:43:15;24.90;99.90
19908;DHT22;10116;53.112;7.356;2023-07-13T02:45:45;24.80;99.90
19908;DHT22;10116;53.112;7.356;2023-07-13T02:48:13;24.80;99.90
19908;DHT22;10116;53.112;7.356;2023-07-13T02:50:39;24.80;99.90
19908;DHT22;10116;53.112;7.356;2023-07-13T02:53:05;24.80;99.90
19908;DHT22;10116;53.112;7.356;2023-07-13T02:55:30;24.80;99.90
19908;DHT22;10116;53.112;7.356;2023-07-13T02:57:56;24.80;99.90
19908;DHT22;10116;53.112;7.356;2023-07-13T03:00:23;24.80;99.90
19908;DHT22;10116;53.112;7.356;2023-07-13T03:02:48;24.80;99.90
19908;DHT22;10116;53.112;7.356;2023-07-13T03:05:14;24.80;99.90
19908;DHT22;10116;53.112;7.356;2023-07-13T03:07:40;24.80;99.90
19908;DHT22;10116;53.112;7.356;2023-07-13T03:10:06;24.80;99.90
19908;DHT22;10116;53.112;7.356;2023-07-13T03:12:32;24.80;99.90
19908;DHT22;10116;53.112;7.356;2023-07-13T03:14:58;24.80;99.90
19908;DHT22;10116;53.112;7.356;2023-07-13T03:17:24;24.80;99.90
19908;DHT22;10116;53.112;7.356;2023-07-13T03:19:49;24.80;99.90
19908;DHT22;10116;53.112;7.356;2023-07-13T03:22:19;24.80;99.90
19908;DHT22;10116;53.112;7.356;2023-07-13T03:24:45;24.80;99.90
19908;DHT22;10116;53.112;7.356;2023-07-13T03:27:11;24.80;99.90
19908;DHT22;10116;53.112;7.356;2023-07-13T03:29:37;24.80;99.90
19908;DHT22;10116;53.112;7.356;2023-07-13T03:32:02;24.80;99.90
19908;DHT22;10116;53.112;7.356;2023-07-13T03:34:30;24.80;99.90
19908;DHT22;10116;53.112;7.356;2023-07-13T03:36:56;24.80;99.90
19908;DHT22;10116;53.112;7.356;2023-07-13T03:39:22;24.80;99.90
19908;DHT22;10116;53.112;7.356;2023-07-13T03:41:47;24.80;99.90
19908;DHT22;10116;53.112;7.356;2023-07-13T03:44:15;24.80;99.90
19908;DHT22;10116;53.112;7.356;2023-07-13T03:46:41;24.80;99.90
19908;DHT22;10116;53.112;7.356;2023-07-13T03:49:06;24.80;99.90
19908;DHT22;10116;53.112;7.356;2023-07-13T03:51:32;24.80;99.90
19908;DHT22;10116;53.112;7.356;2023-07-13T03:53:57;24.80;99.90
19908;DHT22;10116;53.112;7.356;2023-07-13T03:56:23;24.80;99.90
19908;DHT22;10116;53.112;7.356;2023-07-13T03:58:50;24.80;99.90
19908;DHT22;10116;53.112;7.356;2023-07-13T04:01:18;24.80;99.90
19908;DHT22;10116;53.112;7.356;2023-07-13T04:03:44;24.80;99.90
19908;DHT22;10116;53.112;7.356;2023-07-13T04:06:25;24.80;99.90
19908;DHT22;10116;53.112;7.356;2023-07-13T04:08:53;24.80;99.90
19908;DHT22;10116;53.112;7.356;2023-07-13T04:11:20;24.80;99.90
19908;DHT22;10116;53.112;7.356;2023-07-13T04:13:47;24.80;99.90
19908;DHT22;10116;53.112;7.356;2023-07-13T04:16:14;24.80;99.90
19908;DHT22;10116;53.112;7.356;2023-07-13T04:18:41;24.80;99.90
19908;DHT22;10116;53.112;7.356;2023-07-13T04:21:07;24.80;99.90
19908;DHT22;10116;53.112;7.356;2023-07-13T04:23:34;24.80;99.90
19908;DHT22;10116;53.112;7.356;2023-07-13T04:26:00;24.80;99.90
19908;DHT22;10116;53.112;7.356;2023-07-13T04:28:26;24.80;99.90
19908;DHT22;10116;53.112;7.356;2023-07-13T04:30:52;24.80;99.90
19908;DHT22;10116;53.112;7.356;2023-07-13T04:33:18;24.80;99.90
19908;DHT22;10116;53.112;7.356;2023-07-13T04:35:51;24.80;99.90
19908;DHT22;10116;53.112;7.356;2023-07-13T04:38:20;24.80;99.90
19908;DHT22;10116;53.112;7.356;2023-07-13T04:40:46;24.80;99.90
19908;DHT22;10116;53.112;7.356;2023-07-13T04:43:12;24.80;99.90
19908;DHT22;10116;53.112;7.356;2023-07-13T04:45:37;24.80;99.90
19908;DHT22;10116;53.112;7.356;2023-07-13T04:48:03;24.80;99.90
19908;DHT22;10116;53.112;7.356;2023-07-13T04:50:29;24.80;99.90
19908;DHT22;10116;53.112;7.356;2023-07-13T04:52:55;24.80;99.90
19908;DHT22;10116;53.112;7.356;2023-07-13T04:55:20;24.80;99.90
19908;DHT22;10116;53.112;7.356;2023-07-13T04:57:46;24.80;99.90
19908;DHT22;10116;53.112;7.356;2023-07-13T05:00:13;24.80;99.90
19908;DHT22;10116;53.112;7.356;2023-07-13T05:02:43;24.80;99.90
19908;DHT22;10116;53.112;7.356;2023-07-13T05:05:08;24.80;99.90
19908;DHT22;10116;53.112;7.356;2023-07-13T05:07:34;24.80;99.90
19908;DHT22;10116;53.112;7.356;2023-07-13T05:10:00;24.80;99.90
19908;DHT22;10116;53.112;7.356;2023-07-13T05:12:26;24.80;99.90
19908;DHT22;10116;53.112;7.356;2023-07-13T05:14:52;24.80;99.90
19908;DHT22;10116;53.112;7.356;2023-07-13T05:17:17;24.80;99.90
19908;DHT22;10116;53.112;7.356;2023-07-13T05:19:43;24.80;99.90
19908;DHT22;10116;53.112;7.356;2023-07-13T05:22:09;24.80;99.90
19908;DHT22;10116;53.112;7.356;2023-07-13T05:24:34;24.80;99.90
19908;DHT22;10116;53.112;7.356;2023-07-13T05:27:00;24.80;99.90
19908;DHT22;10116;53.112;7.356;2023-07-13T05:29:25;24.80;99.90
19908;DHT22;10116;53.112;7.356;2023-07-13T05:31:51;24.80;99.90
19908;DHT22;10116;53.112;7.356;2023-07-13T05:34:17;24.90;99.90
19908;DHT22;10116;53.112;7.356;2023-07-13T05:36:42;24.90;99.90
19908;DHT22;10116;53.112;7.356;2023-07-13T05:39:08;24.80;99.90
19908;DHT22;10116;53.112;7.356;2023-07-13T05:41:35;24.90;99.90
19908;DHT22;10116;53.112;7.356;2023-07-13T05:44:00;24.90;99.90
19908;DHT22;10116;53.112;7.356;2023-07-13T05:46:26;24.90;99.90
19908;DHT22;10116;53.112;7.356;2023-07-13T05:48:51;24.90;99.90
19908;DHT22;10116;53.112;7.356;2023-07-13T05:51:17;24.90;99.90
19908;DHT22;10116;53.112;7.356;2023-07-13T05:53:43;24.90;99.90
19908;DHT22;10116;53.112;7.356;2023-07-13T05:56:08;25.00;99.90
19908;DHT22;10116;53.112;7.356;2023-07-13T05:58:34;25.00;99.90
19908;DHT22;10116;53.112;7.356;2023-07-13T06:01:11;25.00;99.90
19908;DHT22;10116;53.112;7.356;2023-07-13T06:03:37;25.00;99.90
19908;DHT22;10116;53.112;7.356;2023-07-13T06:06:05;25.00;99.90
19908;DHT22;10116;53.112;7.356;2023-07-13T06:08:31;25.00;99.90
19908;DHT22;10116;53.112;7.356;2023-07-13T06:11:11;25.00;99.90
19908;DHT22;10116;53.112;7.356;2023-07-13T06:13:37;25.00;99.90
19908;DHT22;10116;53.112;7.356;2023-07-13T06:16:03;25.00;99.90
19908;DHT22;10116;53.112;7.356;2023-07-13T06:18:36;25.00;99.90
19908;DHT22;10116;53.112;7.356;2023-07-13T06:21:10;25.00;99.90
19908;DHT22;10116;53.112;7.356;2023-07-13T06:23:36;25.10;99.90
19908;DHT22;10116;53.112;7.356;2023-07-13T06:26:03;25.00;99.90
19908;DHT22;10116;53.112;7.356;2023-07-13T06:28:29;25.10;99.90
19908;DHT22;10116;53.112;7.356;2023-07-13T06:30:57;25.10;99.90
19908;DHT22;10116;53.112;7.356;2023-07-13T06:33:22;25.10;99.90
19908;DHT22;10116;53.112;7.356;2023-07-13T06:35:48;25.10;99.90
19908;DHT22;10116;53.112;7.356;2023-07-13T06:38:13;25.10;99.90
19908;DHT22;10116;53.112;7.356;2023-07-13T06:40:39;25.10;99.90
19908;DHT22;10116;53.112;7.356;2023-07-13T06:43:04;25.10;99.90
19908;DHT22;10116;53.112;7.356;2023-07-13T06:45:30;25.10;99.90
19908;DHT22;10116;53.112;7.356;2023-07-13T06:47:58;25.20;99.90
19908;DHT22;10116;53.112;7.356;2023-07-13T06:50:23;25.20;99.90
19908;DHT22;10116;53.112;7.356;2023-07-13T06:52:49;25.30;99.90
19908;DHT22;10116;53.112;7.356;2023-07-13T06:55:15;25.40;99.90
19908;DHT22;10116;53.112;7.356;2023-07-13T06:57:40;25.40;99.90
19908;DHT22;10116;53.112;7.356;2023-07-13T07:00:06;25.50;99.90
19908;DHT22;10116;53.112;7.356;2023-07-13T07:02:32;25.60;99.90
19908;DHT22;10116;53.112;7.356;2023-07-13T07:04:57;25.60;99.90
19908;DHT22;10116;53.112;7.356;2023-07-13T07:07:26;25.60;99.90
19908;DHT22;10116;53.112;7.356;2023-07-13T07:09:52;25.60;99.90
19908;DHT22;10116;53.112;7.356;2023-07-13T07:12:17;25.70;99.90
19908;DHT22;10116;53.112;7.356;2023-07-13T07:14:43;25.70;99.90
19908;DHT22;10116;53.112;7.356;2023-07-13T07:17:08;25.70;99.90
19908;DHT22;10116;53.112;7.356;2023-07-13T07:19:35;25.80;99.90
19908;DHT22;10116;53.112;7.356;2023-07-13T07:22:00;25.80;99.90
19908;DHT22;10116;53.112;7.356;2023-07-13T07:24:26;25.80;99.90
19908;DHT22;10116;53.112;7.356;2023-07-13T07:26:52;25.90;99.90
19908;DHT22;10116;53.112;7.356;2023-07-13T07:29:17;25.90;99.90
19908;DHT22;10116;53.112;7.356;2023-07-13T07:31:43;25.90;99.90
19908;DHT22;10116;53.112;7.356;2023-07-13T07:34:08;25.90;99.90
19908;DHT22;10116;53.112;7.356;2023-07-13T07:36:34;25.90;99.90
19908;DHT22;10116;53.112;7.356;2023-07-13T07:39:00;26.00;99.90
19908;DHT22;10116;53.112;7.356;2023-07-13T07:41:25;26.00;99.90
19908;DHT22;10116;53.112;7.356;2023-07-13T07:43:51;26.00;99.90
19908;DHT22;10116;53.112;7.356;2023-07-13T07:46:16;26.00;99.90
19908;DHT22;10116;53.112;7.356;2023-07-13T07:48:42;26.00;99.90
19908;DHT22;10116;53.112;7.356;2023-07-13T07:51:08;26.10;99.90
19908;DHT22;10116;53.112;7.356;2023-07-13T07:53:33;26.10;99.90
19908;DHT22;10116;53.112;7.356;2023-07-13T07:55:59;26.10;99.90
19908;DHT22;10116;53.112;7.356;2023-07-13T07:58:24;26.10;99.90
19908;DHT22;10116;53.112;7.356;2023-07-13T08:00:50;26.10;99.90
19908;DHT22;10116;53.112;7.356;2023-07-13T08:03:16;26.10;99.90
19908;DHT22;10116;53.112;7.356;2023-07-13T08:05:41;26.20;99.90
19908;DHT22;10116;53.112;7.356;2023-07-13T08:08:07;26.20;99.90
19908;DHT22;10116;53.112;7.356;2023-07-13T08:10:35;26.20;99.90
19908;DHT22;10116;53.112;7.356;2023-07-13T08:13:02;26.30;99.90
19908;DHT22;10116;53.112;7.356;2023-07-13T08:15:28;26.30;99.90
19908;DHT22;10116;53.112;7.356;2023-07-13T08:17:53;26.30;99.90
19908;DHT22;10116;53.112;7.356;2023-07-13T08:20:19;26.40;99.90
19908;DHT22;10116;53.112;7.356;2023-07-13T08:22:44;26.30;99.90
19908;DHT22;10116;53.112;7.356;2023-07-13T08:25:10;26.40;99.90
19908;DHT22;10116;53.112;7.356;2023-07-13T08:27:37;26.40;99.90
19908;DHT22;10116;53.112;7.356;2023-07-13T08:30:03;26.40;99.90
19908;DHT22;10116;53.112;7.356;2023-07-13T08:32:28;26.40;99.90
19908;DHT22;10116;53.112;7.356;2023-07-13T08:34:54;26.40;99.90
19908;DHT22;10116;53.112;7.356;2023-07-13T08:37:20;26.50;99.90
19908;DHT22;10116;53.112;7.356;2023-07-13T08:39:45;26.50;99.90
19908;DHT22;10116;53.112;7.356;2023-07-13T08:44:54;26.60;99.90
19908;DHT22;10116;53.112;7.356;2023-07-13T08:47:23;26.60;99.90
19908;DHT22;10116;53.112;7.356;2023-07-13T08:49:50;26.60;99.90
19908;DHT22;10116;53.112;7.356;2023-07-13T08:52:33;26.60;99.90
19908;DHT22;10116;53.112;7.356;2023-07-13T08:55:09;26.60;99.90
19908;DHT22;10116;53.112;7.356;2023-07-13T08:57:38;26.60;99.90
19908;DHT22;10116;53.112;7.356;2023-07-13T09:00:08;26.60;99.90
19908;DHT22;10116;53.112;7.356;2023-07-13T09:02:56;26.60;99.90
19908;DHT22;10116;53.112;7.356;2023-07-13T09:05:31;26.60;99.90
19908;DHT22;10116;53.112;7.356;2023-07-13T09:10:49;26.60;99.90
19908;DHT22;10116;53.112;7.356;2023-07-13T09:16:01;26.60;99.90
19908;DHT22;10116;53.112;7.356;2023-07-13T09:18:48;26.60;99.90
19908;DHT22;10116;53.112;7.356;2023-07-13T09:21:18;26.60;99.90
19908;DHT22;10116;53.112;7.356;2023-07-13T09:23:47;26.60;99.90
19908;DHT22;10116;53.112;7.356;2023-07-13T09:26:14;26.60;99.90
19908;DHT22;10116;53.112;7.356;2023-07-13T09:28:45;26.70;99.90
19908;DHT22;10116;53.112;7.356;2023-07-13T09:31:19;26.60;99.90
19908;DHT22;10116;53.112;7.356;2023-07-13T09:33:47;26.70;99.90
19908;DHT22;10116;53.112;7.356;2023-07-13T09:36:31;26.60;99.90
19908;DHT22;10116;53.112;7.356;2023-07-13T09:42:19;26.60;99.90
19908;DHT22;10116;53.112;7.356;2023-07-13T09:47:26;26.60;99.90
19908;DHT22;10116;53.112;7.356;2023-07-13T09:50:00;26.60;99.90
19908;DHT22;10116;53.112;7.356;2023-07-13T09:52:27;26.60;99.90
19908;DHT22;10116;53.112;7.356;2023-07-13T09:54:54;26.50;99.90
19908;DHT22;10116;53.112;7.356;2023-07-13T09:57:26;26.60;99.90
19908;DHT22;10116;53.112;7.356;2023-07-13T09:59:54;26.50;99.90
19908;DHT22;10116;53.112;7.356;2023-07-13T10:02:29;26.50;99.90
19908;DHT22;10116;53.112;7.356;2023-07-13T10:04:57;26.50;99.90
19908;DHT22;10116;53.112;7.356;2023-07-13T10:07:23;26.60;99.90
19908;DHT22;10116;53.112;7.356;2023-07-13T10:09:53;26.60;99.90
19908;DHT22;10116;53.112;7.356;2023-07-13T10:12:20;26.60;99.90
19908;DHT22;10116;53.112;7.356;2023-07-13T10:14:46;26.60;99.90
19908;DHT22;10116;53.112;7.356;2023-07-13T10:17:14;26.60;99.90
19908;DHT22;10116;53.112;7.356;2023-07-13T10:19:42;26.70;99.90
19908;DHT22;10116;53.112;7.356;2023-07-13T10:23:20;26.70;99.90
19908;DHT22;10116;53.112;7.356;2023-07-13T10:25:19;26.70;99.90
19908;DHT22;10116;53.112;7.356;2023-07-13T10:27:46;26.70;99.90
19908;DHT22;10116;53.112;7.356;2023-07-13T10:30:27;26.70;99.90
19908;DHT22;10116;53.112;7.356;2023-07-13T10:32:58;26.70;99.90
19908;DHT22;10116;53.112;7.356;2023-07-13T10:35:26;26.70;99.90
19908;DHT22;10116;53.112;7.356;2023-07-13T10:38:06;26.80;99.90
19908;DHT22;10116;53.112;7.356;2023-07-13T10:40:41;26.70;99.90
19908;DHT22;10116;53.112;7.356;2023-07-13T10:43:18;26.70;99.90
19908;DHT22;10116;53.112;7.356;2023-07-13T10:45:46;26.70;99.90
19908;DHT22;10116;53.112;7.356;2023-07-13T10:48:15;26.70;99.90
19908;DHT22;10116;53.112;7.356;2023-07-13T10:50:44;26.70;99.90
19908;DHT22;10116;53.112;7.356;2023-07-13T10:53:27;26.70;99.90
19908;DHT22;10116;53.112;7.356;2023-07-13T10:58:42;26.70;99.90
19908;DHT22;10116;53.112;7.356;2023-07-13T11:01:18;26.70;99.90
19908;DHT22;10116;53.112;7.356;2023-07-13T11:08:52;26.60;99.90
19908;DHT22;10116;53.112;7.356;2023-07-13T11:18:51;26.60;99.90
19908;DHT22;10116;53.112;7.356;2023-07-13T11:21:23;26.60;99.90
19908;DHT22;10116;53.112;7.356;2023-07-13T11:24:16;26.60;99.90
19908;DHT22;10116;53.112;7.356;2023-07-13T11:31:43;26.60;99.90
19908;DHT22;10116;53.112;7.356;2023-07-13T11:34:14;26.60;99.90
19908;DHT22;10116;53.112;7.356;2023-07-13T11:36:43;26.60;99.90
19908;DHT22;10116;53.112;7.356;2023-07-13T11:39:16;26.60;99.90
19908;DHT22;10116;53.112;7.356;2023-07-13T11:41:50;26.60;99.90
19908;DHT22;10116;53.112;7.356;2023-07-13T11:44:19;26.60;99.90
19908;DHT22;10116;53.112;7.356;2023-07-13T11:46:51;26.60;99.90
19908;DHT22;10116;53.112;7.356;2023-07-13T11:49:19;26.60;99.90
19908;DHT22;10116;53.112;7.356;2023-07-13T11:51:45;26.60;99.90
19908;DHT22;10116;53.112;7.356;2023-07-13T11:54:32;26.60;99.90
19908;DHT22;10116;53.112;7.356;2023-07-13T11:57:36;26.60;99.90
19908;DHT22;10116;53.112;7.356;2023-07-13T12:00:13;26.60;99.90
19908;DHT22;10116;53.112;7.356;2023-07-13T12:02:43;26.60;99.90
19908;DHT22;10116;53.112;7.356;2023-07-13T12:05:12;26.70;99.90
19908;DHT22;10116;53.112;7.356;2023-07-13T12:07:39;26.70;99.90
19908;DHT22;10116;53.112;7.356;2023-07-13T12:13:04;26.70;99.90
19908;DHT22;10116;53.112;7.356;2023-07-13T12:15:41;26.80;99.90
19908;DHT22;10116;53.112;7.356;2023-07-13T12:18:17;26.70;99.90
19908;DHT22;10116;53.112;7.356;2023-07-13T12:20:45;26.70;99.90
19908;DHT22;10116;53.112;7.356;2023-07-13T12:23:32;26.70;99.90
19908;DHT22;10116;53.112;7.356;2023-07-13T12:26:02;26.70;99.90
19908;DHT22;10116;53.112;7.356;2023-07-13T12:28:35;26.70;99.90
19908;DHT22;10116;53.112;7.356;2023-07-13T12:31:07;26.70;99.90
19908;DHT22;10116;53.112;7.356;2023-07-13T12:33:44;26.70;99.90
19908;DHT22;10116;53.112;7.356;2023-07-13T12:36:12;26.70;99.90
19908;DHT22;10116;53.112;7.356;2023-07-13T12:38:38;26.70;99.90
19908;DHT22;10116;53.112;7.356;2023-07-13T12:41:03;26.70;99.90
19908;DHT22;10116;53.112;7.356;2023-07-13T12:43:33;26.70;99.90
19908;DHT22;10116;53.112;7.356;2023-07-13T12:46:05;26.70;99.90
19908;DHT22;10116;53.112;7.356;2023-07-13T12:48:41;26.70;99.90
19908;DHT22;10116;53.112;7.356;2023-07-13T12:51:10;26.60;99.90
19908;DHT22;10116;53.112;7.356;2023-07-13T12:53:41;26.60;99.90
19908;DHT22;10116;53.112;7.356;2023-07-13T12:56:15;26.60;99.90
19908;DHT22;10116;53.112;7.356;2023-07-13T12:58:42;26.60;99.90
19908;DHT22;10116;53.112;7.356;2023-07-13T13:01:11;26.60;99.90
19908;DHT22;10116;53.112;7.356;2023-07-13T13:03:48;26.60;99.90
19908;DHT22;10116;53.112;7.356;2023-07-13T13:08:47;26.60;99.90
19908;DHT22;10116;53.112;7.356;2023-07-13T13:11:17;26.60;99.90
19908;DHT22;10116;53.112;7.356;2023-07-13T13:13:44;26.60;99.90
19908;DHT22;10116;53.112;7.356;2023-07-13T13:16:33;26.60;99.90
19908;DHT22;10116;53.112;7.356;2023-07-13T13:19:23;26.60;99.90
19908;DHT22;10116;53.112;7.356;2023-07-13T13:21:47;26.60;99.90
19908;DHT22;10116;53.112;7.356;2023-07-13T13:24:17;26.70;99.90
19908;DHT22;10116;53.112;7.356;2023-07-13T13:26:44;26.70;99.90
19908;DHT22;10116;53.112;7.356;2023-07-13T13:29:21;26.70;99.90
19908;DHT22;10116;53.112;7.356;2023-07-13T13:31:49;26.70;99.90
19908;DHT22;10116;53.112;7.356;2023-07-13T13:34:16;26.70;99.90
19908;DHT22;10116;53.112;7.356;2023-07-13T13:36:43;26.70;99.90
19908;DHT22;10116;53.112;7.356;2023-07-13T13:41:43;26.80;99.90
19908;DHT22;10116;53.112;7.356;2023-07-13T13:44:09;26.80;99.90
19908;DHT22;10116;53.112;7.356;2023-07-13T13:46:35;26.70;99.90
19908;DHT22;10116;53.112;7.356;2023-07-13T13:49:01;26.80;99.90
19908;DHT22;10116;53.112;7.356;2023-07-13T13:51:28;26.80;99.90
19908;DHT22;10116;53.112;7.356;2023-07-13T13:53:54;26.80;99.90
19908;DHT22;10116;53.112;7.356;2023-07-13T13:56:20;26.80;99.90
19908;DHT22;10116;53.112;7.356;2023-07-13T13:58:46;26.80;99.90
19908;DHT22;10116;53.112;7.356;2023-07-13T14:01:22;26.70;99.90
19908;DHT22;10116;53.112;7.356;2023-07-13T14:03:48;26.80;99.90
19908;DHT22;10116;53.112;7.356;2023-07-13T14:06:16;26.80;99.90
19908;DHT22;10116;53.112;7.356;2023-07-13T14:08:42;26.80;99.90
19908;DHT22;10116;53.112;7.356;2023-07-13T14:11:13;26.80;99.90
19908;DHT22;10116;53.112;7.356;2023-07-13T14:13:43;26.90;99.90
19908;DHT22;10116;53.112;7.356;2023-07-13T14:16:15;26.90;99.90
19908;DHT22;10116;53.112;7.356;2023-07-13T14:18:42;26.90;99.90
19908;DHT22;10116;53.112;7.356;2023-07-13T14:21:15;26.90;99.90
19908;DHT22;10116;53.112;7.356;2023-07-13T14:23:43;27.00;99.90
19908;DHT22;10116;53.112;7.356;2023-07-13T14:26:25;27.00;99.90
19908;DHT22;10116;53.112;7.356;2023-07-13T14:28:55;27.00;99.90
19908;DHT22;10116;53.112;7.356;2023-07-13T14:31:22;27.00;99.90
19908;DHT22;10116;53.112;7.356;2023-07-13T14:33:48;27.00;99.90
19908;DHT22;10116;53.112;7.356;2023-07-13T14:36:25;27.00;99.90
19908;DHT22;10116;53.112;7.356;2023-07-13T14:38:52;27.00;99.90
19908;DHT22;10116;53.112;7.356;2023-07-13T14:41:18;27.00;99.90
19908;DHT22;10116;53.112;7.356;2023-07-13T14:43:44;26.90;99.90
19908;DHT22;10116;53.112;7.356;2023-07-13T14:46:24;26.90;99.90
19908;DHT22;10116;53.112;7.356;2023-07-13T14:51:26;26.90;99.90
19908;DHT22;10116;53.112;7.356;2023-07-13T14:53:52;26.90;99.90
19908;DHT22;10116;53.112;7.356;2023-07-13T14:56:18;26.90;99.90
19908;DHT22;10116;53.112;7.356;2023-07-13T14:58:43;26.90;99.90
19908;DHT22;10116;53.112;7.356;2023-07-13T15:01:14;26.90;99.90
19908;DHT22;10116;53.112;7.356;2023-07-13T15:03:46;26.90;99.90
19908;DHT22;10116;53.112;7.356;2023-07-13T15:06:13;26.90;99.90
19908;DHT22;10116;53.112;7.356;2023-07-13T15:08:39;26.90;99.90
19908;DHT22;10116;53.112;7.356;2023-07-13T15:11:09;26.90;99.90
19908;DHT22;10116;53.112;7.356;2023-07-13T15:13:41;26.90;99.90
19908;DHT22;10116;53.112;7.356;2023-07-13T15:16:18;26.90;99.90
19908;DHT22;10116;53.112;7.356;2023-07-13T15:18:46;26.90;99.90
19908;DHT22;10116;53.112;7.356;2023-07-13T15:21:20;26.90;99.90
19908;DHT22;10116;53.112;7.356;2023-07-13T15:23:46;26.90;99.90
19908;DHT22;10116;53.112;7.356;2023-07-13T15:26:14;26.90;99.90
19908;DHT22;10116;53.112;7.356;2023-07-13T15:28:41;26.90;99.90
19908;DHT22;10116;53.112;7.356;2023-07-13T15:31:19;26.90;99.90
19908;DHT22;10116;53.112;7.356;2023-07-13T15:33:45;26.90;99.90
19908;DHT22;10116;53.112;7.356;2023-07-13T15:36:13;26.90;99.90
19908;DHT22;10116;53.112;7.356;2023-07-13T15:38:39;26.90;99.90
19908;DHT22;10116;53.112;7.356;2023-07-13T15:41:23;26.90;99.90
19908;DHT22;10116;53.112;7.356;2023-07-13T15:43:50;26.90;99.90
19908;DHT22;10116;53.112;7.356;2023-07-13T15:46:21;26.90;99.90
19908;DHT22;10116;53.112;7.356;2023-07-13T15:48:48;27.00;99.90
19908;DHT22;10116;53.112;7.356;2023-07-13T15:51:27;27.00;99.90
19908;DHT22;10116;53.112;7.356;2023-07-13T15:53:56;27.00;99.90
19908;DHT22;10116;53.112;7.356;2023-07-13T15:56:28;27.00;99.90
19908;DHT22;10116;53.112;7.356;2023-07-13T15:58:55;27.10;99.90
19908;DHT22;10116;53.112;7.356;2023-07-13T16:01:23;27.10;99.90
19908;DHT22;10116;53.112;7.356;2023-07-13T16:03:49;27.10;99.90
19908;DHT22;10116;53.112;7.356;2023-07-13T16:06:33;27.10;99.90
19908;DHT22;10116;53.112;7.356;2023-07-13T16:09:00;27.10;99.90
19908;DHT22;10116;53.112;7.356;2023-07-13T16:11:33;27.10;99.90
19908;DHT22;10116;53.112;7.356;2023-07-13T16:13:59;27.10;99.90
19908;DHT22;10116;53.112;7.356;2023-07-13T16:16:30;27.10;99.90
19908;DHT22;10116;53.112;7.356;2023-07-13T16:18:58;27.10;99.90
19908;DHT22;10116;53.112;7.356;2023-07-13T16:21:49;27.10;99.90
19908;DHT22;10116;53.112;7.356;2023-07-13T16:24:22;27.10;99.90
19908;DHT22;10116;53.112;7.356;2023-07-13T16:26:50;27.10;99.90
19908;DHT22;10116;53.112;7.356;2023-07-13T16:29:24;27.10;99.90